Time;durP1;ratioP1;P1;durP2;ratioP2;P2;SDS_P1;SDS_P2;PMS_P1;PMS_P2;Temp;Humidity;BMP_temperature;BMP_pressure;BME280_temperature;BME280_humidity;BME280_pressure;Samples;Min_cycle;Max_cycle;Signal;HPM_P1;HPM_P2
2022/05/05 00:01:38;;;;;;;22.50;9.25;;;4.50;99.90;;;;;;5019044;28;20045;-81
2022/05/05 00:04:04;;;;;;;18.38;9.43;;;4.60;99.90;;;;;;5019668;28;20088;-80
2022/05/05 00:06:29;;;;;;;20.25;9.80;;;4.50;99.90;;;;;;5018102;28;20073;-80
2022/05/05 00:08:55;;;;;;;19.65;10.00;;;4.60;99.90;;;;;;5019013;28;20122;-81
2022/05/05 00:14:27;;;;;;;15.63;8.15;;;4.60;99.90;;;;;;5019033;28;20054;-81
2022/05/05 00:16:54;;;;;;;;;;;4.70;99.90;;;;;;5019821;28;20125;-80
2022/05/05 00:19:20;;;;;;;18.48;8.65;;;4.70;99.90;;;;;;5018469;28;19921;-80
2022/05/05 00:21:46;;;;;;;23.45;9.32;;;4.70;99.90;;;;;;5018831;28;20511;-80
2022/05/05 00:24:12;;;;;;;16.35;7.88;;;4.70;99.90;;;;;;5018087;28;20049;-80
2022/05/05 00:26:38;;;;;;;16.38;8.23;;;4.70;99.90;;;;;;5018422;28;20413;-80
2022/05/05 00:29:05;;;;;;;19.88;8.82;;;4.60;99.90;;;;;;5018425;28;20048;-81
2022/05/05 00:31:30;;;;;;;18.60;9.27;;;4.60;99.90;;;;;;5018315;28;20068;-80
2022/05/05 00:33:56;;;;;;;24.40;9.68;;;4.60;99.90;;;;;;5001315;28;20644;-81
2022/05/05 00:36:22;;;;;;;26.88;9.63;;;4.50;99.90;;;;;;5019839;28;20117;-81
2022/05/05 00:38:47;;;;;;;18.48;8.70;;;4.60;99.90;;;;;;5018831;28;20092;-80
2022/05/05 00:41:13;;;;;;;18.35;8.52;;;4.50;99.90;;;;;;5022500;28;20034;-81
2022/05/05 00:43:38;;;;;;;20.00;9.30;;;4.50;99.90;;;;;;5026904;28;20038;-80
2022/05/05 00:46:04;;;;;;;14.80;8.32;;;4.60;99.90;;;;;;5029203;28;20500;-80
2022/05/05 00:48:30;;;;;;;16.88;8.25;;;4.60;99.90;;;;;;5023267;28;20561;-80
2022/05/05 00:50:56;;;;;;;19.65;8.40;;;4.60;99.90;;;;;;5019421;28;20065;-80
2022/05/05 00:53:22;;;;;;;16.67;8.07;;;4.50;99.90;;;;;;5019515;28;20067;-80
2022/05/05 00:55:53;;;;;;;20.35;9.18;;;4.40;99.90;;;;;;5019137;28;20045;-80
2022/05/05 00:58:19;;;;;;;21.17;8.57;;;4.40;99.90;;;;;;5018768;28;20069;-80
2022/05/05 01:00:45;;;;;;;15.13;7.90;;;4.30;99.90;;;;;;5034296;28;20108;-81
2022/05/05 01:03:12;;;;;;;17.30;7.80;;;4.20;99.90;;;;;;5019020;28;20445;-80
2022/05/05 01:05:39;;;;;;;18.38;8.77;;;4.40;99.90;;;;;;5024066;28;20466;-81
2022/05/05 01:08:05;;;;;;;18.02;8.45;;;4.50;99.90;;;;;;5030895;28;20045;-80
2022/05/05 01:10:31;;;;;;;14.40;8.38;;;4.50;99.90;;;;;;5029296;28;20038;-80
2022/05/05 01:12:56;;;;;;;17.00;8.15;;;4.60;99.90;;;;;;5029429;28;20041;-80
2022/05/05 01:15:22;;;;;;;16.52;8.85;;;4.60;99.90;;;;;;5029323;28;20118;-80
2022/05/05 01:17:48;;;;;;;19.92;8.93;;;4.70;99.90;;;;;;5026455;28;20038;-80
2022/05/05 01:20:22;;;;;;;14.23;8.48;;;4.80;99.90;;;;;;5020278;28;20120;-80
2022/05/05 01:22:47;;;;;;;25.42;9.65;;;4.80;99.90;;;;;;5022887;28;20038;-80
2022/05/05 01:28:12;;;;;;;21.15;9.77;;;4.80;99.90;;;;;;5023125;28;20101;-80
2022/05/05 01:30:48;;;;;;;13.15;8.23;;;4.80;99.90;;;;;;5025999;28;20168;-80
2022/05/05 01:33:16;;;;;;;18.73;9.45;;;4.90;99.90;;;;;;5026203;28;20053;-80
2022/05/05 01:35:43;;;;;;;17.27;9.32;;;4.90;99.90;;;;;;5027406;28;20042;-80
2022/05/05 01:38:14;;;;;;;17.20;8.68;;;4.90;99.90;;;;;;5027194;28;20057;-80
2022/05/05 01:40:39;;;;;;;19.98;8.88;;;5.00;99.90;;;;;;5026993;28;20049;-80
2022/05/05 01:43:08;;;;;;;15.45;7.40;;;5.10;99.90;;;;;;5024745;28;20120;-81
2022/05/05 01:45:35;;;;;;;16.40;8.13;;;5.20;99.90;;;;;;5022331;28;20081;-80
2022/05/05 01:48:01;;;;;;;16.55;8.05;;;5.20;99.90;;;;;;5021899;28;20116;-81
2022/05/05 01:50:28;;;;;;;16.65;8.18;;;5.20;99.90;;;;;;5024199;28;20052;-80
2022/05/05 01:52:53;;;;;;;26.27;8.23;;;5.20;99.90;;;;;;5022220;28;20104;-81
2022/05/05 01:55:22;;;;;;;19.30;6.97;;;5.20;99.90;;;;;;5023027;28;20474;-80
2022/05/05 01:57:48;;;;;;;21.33;7.75;;;5.10;99.90;;;;;;5022063;28;20126;-80
2022/05/05 02:00:15;;;;;;;17.77;7.20;;;5.10;99.90;;;;;;5052815;23;20130;-84
2022/05/05 02:02:44;;;;;;;21.45;8.13;;;4.90;99.90;;;;;;5038380;28;20064;-84
2022/05/05 02:05:10;;;;;;;17.00;7.53;;;4.90;99.90;;;;;;5023094;28;20076;-84
2022/05/05 02:07:37;;;;;;;18.67;7.82;;;4.90;99.90;;;;;;5024431;28;20075;-84
2022/05/05 02:10:04;;;;;;;12.82;7.60;;;4.80;99.90;;;;;;5010461;28;20043;-84
2022/05/05 02:12:31;;;;;;;16.98;8.70;;;4.70;99.90;;;;;;5005894;28;20069;-84
2022/05/05 02:14:57;;;;;;;16.70;7.70;;;4.70;99.90;;;;;;5023257;28;20100;-84
2022/05/05 02:17:23;;;;;;;12.57;7.43;;;4.60;99.90;;;;;;5024041;28;20038;-84
2022/05/05 02:19:48;;;;;;;24.45;9.00;;;4.50;99.90;;;;;;5023978;28;20042;-84
2022/05/05 02:22:14;;;;;;;17.95;7.80;;;4.40;99.90;;;;;;5023034;28;20038;-84
2022/05/05 02:24:40;;;;;;;19.90;9.05;;;4.30;99.90;;;;;;5023492;28;20441;-84
2022/05/05 02:27:06;;;;;;;19.15;9.82;;;4.30;99.90;;;;;;5023388;28;20049;-84
2022/05/05 02:29:31;;;;;;;21.30;9.18;;;4.20;99.90;;;;;;5023716;28;20033;-84
2022/05/05 02:31:57;;;;;;;18.13;9.30;;;4.20;99.90;;;;;;5023899;28;20054;-84
2022/05/05 02:34:22;;;;;;;18.80;9.23;;;4.20;99.90;;;;;;5022588;28;20049;-84
2022/05/05 02:39:32;;;;;;;19.05;9.32;;;4.20;99.90;;;;;;5023526;28;20133;-84
2022/05/05 02:41:57;;;;;;;19.20;9.50;;;4.20;99.90;;;;;;5024881;28;20065;-84
2022/05/05 02:44:23;;;;;;;20.90;10.35;;;4.20;99.90;;;;;;5025962;28;20048;-84
2022/05/05 02:46:49;;;;;;;19.98;11.50;;;4.20;99.90;;;;;;5026205;28;20038;-84
2022/05/05 02:49:14;;;;;;;19.70;11.30;;;4.20;99.90;;;;;;5025337;28;20065;-84
2022/05/05 02:51:40;;;;;;;21.75;11.07;;;4.30;99.90;;;;;;5025342;28;20506;-84
2022/05/05 02:56:50;;;;;;;22.92;12.73;;;4.20;99.90;;;;;;5025282;28;20058;-84
2022/05/05 02:59:15;;;;;;;24.70;11.90;;;4.30;99.90;;;;;;5025544;28;20038;-84
2022/05/05 03:01:41;;;;;;;23.83;11.63;;;4.20;99.90;;;;;;5024419;28;20045;-84
2022/05/05 03:04:07;;;;;;;19.10;11.50;;;4.20;99.90;;;;;;5026228;28;20046;-84
2022/05/05 03:06:32;;;;;;;22.92;11.68;;;4.20;99.90;;;;;;5026113;28;20042;-84
2022/05/05 03:08:58;;;;;;;19.63;11.77;;;4.10;99.90;;;;;;5025689;28;20505;-84
2022/05/05 03:11:23;;;;;;;21.75;10.88;;;4.10;99.90;;;;;;5026285;28;20041;-84
2022/05/05 03:13:49;;;;;;;23.30;11.23;;;4.20;99.90;;;;;;5026359;28;20208;-84
2022/05/05 03:16:14;;;;;;;17.77;11.23;;;4.20;99.90;;;;;;5026246;28;20049;-84
2022/05/05 03:18:40;;;;;;;27.33;11.32;;;4.30;99.90;;;;;;5027098;28;20042;-84
2022/05/05 03:21:07;;;;;;;20.90;12.07;;;4.40;99.90;;;;;;5028635;28;20053;-84
2022/05/05 03:23:32;;;;;;;25.92;12.02;;;4.40;99.90;;;;;;5028281;28;20038;-84
2022/05/05 03:25:58;;;;;;;23.65;11.65;;;4.50;99.90;;;;;;5028622;28;20131;-84
2022/05/05 03:28:24;;;;;;;20.42;11.52;;;4.50;99.90;;;;;;5026681;28;20048;-84
2022/05/05 03:30:49;;;;;;;22.48;11.80;;;4.50;99.90;;;;;;5026069;28;20042;-84
2022/05/05 03:33:15;;;;;;;25.10;11.50;;;4.60;99.90;;;;;;5024242;28;20147;-84
2022/05/05 03:35:41;;;;;;;25.48;12.10;;;4.60;99.90;;;;;;5022702;28;20046;-84
2022/05/05 03:38:07;;;;;;;34.92;13.07;;;4.60;99.90;;;;;;5024914;28;20413;-84
2022/05/05 03:40:32;;;;;;;22.35;12.15;;;4.70;99.90;;;;;;5025001;28;20045;-84
2022/05/05 03:42:58;;;;;;;23.73;11.05;;;4.80;99.90;;;;;;5023901;28;20041;-84
2022/05/05 03:45:23;;;;;;;27.58;12.65;;;4.80;99.90;;;;;;5021123;28;20046;-85
2022/05/05 03:47:49;;;;;;;19.65;10.73;;;4.80;99.90;;;;;;5021666;28;20065;-84
2022/05/05 03:50:15;;;;;;;22.55;11.98;;;4.80;99.90;;;;;;5023994;28;20042;-84
2022/05/05 03:52:41;;;;;;;21.08;11.98;;;4.80;99.90;;;;;;5025057;28;20140;-84
2022/05/05 03:55:07;;;;;;;25.63;12.27;;;4.80;99.90;;;;;;5040955;28;20134;-84
2022/05/05 03:57:35;;;;;;;25.38;11.13;;;4.80;99.90;;;;;;5024027;28;20066;-84
2022/05/05 04:00:03;;;;;;;19.13;10.75;;;4.90;99.90;;;;;;5022207;28;20070;-84
2022/05/05 04:02:30;;;;;;;23.65;11.00;;;4.90;99.90;;;;;;5021263;28;20574;-84
2022/05/05 04:04:55;;;;;;;26.42;12.77;;;4.90;99.90;;;;;;5022038;28;20398;-84
2022/05/05 04:07:21;;;;;;;19.90;11.93;;;5.00;99.90;;;;;;5022119;28;20045;-84
2022/05/05 04:09:48;;;;;;;24.58;12.07;;;5.00;99.90;;;;;;5021578;28;20042;-84
2022/05/05 04:12:13;;;;;;;24.17;10.52;;;5.10;99.90;;;;;;5021739;28;20180;-85
2022/05/05 04:14:39;;;;;;;24.42;11.18;;;5.10;99.90;;;;;;5022937;28;20045;-84
2022/05/05 04:17:05;;;;;;;18.48;11.50;;;5.20;99.90;;;;;;5022380;28;20490;-84
2022/05/05 04:19:30;;;;;;;20.98;10.85;;;5.20;99.90;;;;;;5003796;28;20037;-84
2022/05/05 04:21:56;;;;;;;23.27;10.27;;;5.30;99.90;;;;;;5021045;28;20046;-84
2022/05/05 04:24:21;;;;;;;20.48;11.32;;;5.30;99.90;;;;;;5020847;28;20046;-84
2022/05/05 04:26:47;;;;;;;23.02;11.40;;;5.40;99.90;;;;;;5022445;28;20046;-84
2022/05/05 04:29:13;;;;;;;27.50;11.57;;;5.40;99.90;;;;;;5023479;28;20037;-84
2022/05/05 04:31:40;;;;;;;25.20;11.50;;;5.50;99.90;;;;;;5024897;28;20026;-84
2022/05/05 04:34:06;;;;;;;28.15;11.95;;;5.60;99.90;;;;;;5026530;28;20046;-84
2022/05/05 04:36:34;;;;;;;21.67;12.50;;;5.60;99.90;;;;;;5010921;28;20070;-84
2022/05/05 04:39:02;;;;;;;20.23;12.25;;;5.70;99.90;;;;;;5004650;28;20046;-84
2022/05/05 04:41:27;;;;;;;22.35;10.40;;;5.80;99.90;;;;;;5004716;28;20039;-84
2022/05/05 04:43:53;;;;;;;20.27;11.73;;;5.80;99.90;;;;;;5017724;28;20125;-84
2022/05/05 04:46:19;;;;;;;17.30;11.38;;;5.90;99.90;;;;;;5025253;28;20456;-84
2022/05/05 04:48:44;;;;;;;24.55;10.05;;;5.90;99.90;;;;;;5016730;28;20046;-84
2022/05/05 04:51:10;;;;;;;23.55;10.07;;;6.00;99.90;;;;;;5022828;28;20038;-84
2022/05/05 04:53:35;;;;;;;29.40;11.57;;;6.00;99.90;;;;;;5017035;28;20045;-84
2022/05/05 04:56:02;;;;;;;19.80;11.10;;;6.10;99.90;;;;;;5017775;28;20034;-84
2022/05/05 04:58:27;;;;;;;20.35;10.65;;;6.10;99.90;;;;;;5026854;28;20110;-84
2022/05/05 05:00:53;;;;;;;19.90;10.57;;;6.20;99.90;;;;;;5028079;28;20402;-84
2022/05/05 05:03:35;;;;;;;30.85;11.73;;;6.20;99.90;;;;;;5027596;28;20128;-84
2022/05/05 05:06:06;;;;;;;26.08;11.07;;;6.30;99.90;;;;;;5029097;28;20050;-84
2022/05/05 05:08:32;;;;;;;19.33;9.65;;;6.40;99.90;;;;;;5045392;28;20148;-84
2022/05/05 05:10:58;;;;;;;17.00;9.95;;;6.50;99.90;;;;;;5030350;28;20041;-84
2022/05/05 05:13:23;;;;;;;23.15;10.45;;;6.60;99.90;;;;;;5029717;28;20038;-84
2022/05/05 05:15:49;;;;;;;17.85;10.68;;;6.70;99.90;;;;;;5029494;28;20046;-85
2022/05/05 05:18:15;;;;;;;26.00;11.13;;;6.80;99.90;;;;;;5026136;28;20041;-85
2022/05/05 05:20:40;;;;;;;16.10;9.95;;;6.80;99.90;;;;;;5020357;28;20506;-85
2022/05/05 05:23:06;;;;;;;19.35;10.48;;;7.00;99.90;;;;;;5021331;28;20042;-84
2022/05/05 05:25:31;;;;;;;15.63;9.73;;;7.10;99.90;;;;;;5013912;28;20034;-85
2022/05/05 05:27:57;;;;;;;16.58;9.50;;;7.20;99.90;;;;;;5014072;28;20450;-83
2022/05/05 05:30:23;;;;;;;18.25;11.13;;;7.40;99.90;;;;;;4996113;28;20450;-82
2022/05/05 05:32:49;;;;;;;24.67;10.20;;;7.50;99.90;;;;;;5008106;28;20041;-84
2022/05/05 05:35:15;;;;;;;19.20;9.88;;;7.60;99.90;;;;;;5025726;28;20053;-84
2022/05/05 05:37:40;;;;;;;16.55;9.43;;;7.80;99.90;;;;;;5020674;28;20056;-84
2022/05/05 05:40:06;;;;;;;21.27;9.55;;;7.90;99.90;;;;;;5012658;28;20078;-84
2022/05/05 05:42:32;;;;;;;25.35;10.48;;;8.10;99.90;;;;;;5009599;28;20082;-85
2022/05/05 05:44:57;;;;;;;18.02;9.40;;;8.10;99.90;;;;;;5008766;28;20046;-85
2022/05/05 05:47:23;;;;;;;23.10;8.52;;;8.20;99.90;;;;;;5007561;28;20050;-84
2022/05/05 05:49:49;;;;;;;13.48;8.10;;;8.30;99.90;;;;;;5007464;28;20042;-85
2022/05/05 05:52:14;;;;;;;15.68;8.38;;;8.50;99.90;;;;;;5004358;28;20049;-85
2022/05/05 05:54:40;;;;;;;15.70;9.20;;;8.60;99.90;;;;;;5004674;28;20119;-84
2022/05/05 05:57:05;;;;;;;15.20;9.32;;;8.70;99.90;;;;;;5006155;28;20046;-85
2022/05/05 05:59:31;;;;;;;18.45;9.30;;;8.80;99.90;;;;;;5009682;28;20101;-85
2022/05/05 06:04:40;;;;;;;15.23;8.80;;;9.10;99.90;;;;;;5010142;28;20046;-85
2022/05/05 06:07:06;;;;;;;16.42;8.13;;;9.20;99.90;;;;;;5007760;28;20491;-84
2022/05/05 06:09:32;;;;;;;22.58;9.10;;;9.20;99.90;;;;;;5008362;28;20051;-85
2022/05/05 06:11:57;;;;;;;15.75;9.23;;;9.70;99.90;;;;;;5008171;28;20046;-85
2022/05/05 06:14:23;;;;;;;18.45;8.32;;;9.50;99.90;;;;;;5007865;28;20043;-84
2022/05/05 06:16:48;;;;;;;17.30;8.43;;;9.70;99.90;;;;;;5009818;28;20046;-85
2022/05/05 06:19:14;;;;;;;17.27;9.15;;;9.80;99.90;;;;;;5009673;28;20061;-85
2022/05/05 06:21:40;;;;;;;11.80;8.00;;;9.90;99.90;;;;;;5009842;28;20061;-85
2022/05/05 06:24:06;;;;;;;15.70;7.85;;;10.00;99.90;;;;;;5010139;28;20414;-85
2022/05/05 06:26:32;;;;;;;20.05;7.97;;;10.20;99.90;;;;;;5010944;28;20042;-85
2022/05/05 06:28:58;;;;;;;17.35;8.63;;;10.30;99.90;;;;;;5010048;28;20042;-85
2022/05/05 06:31:24;;;;;;;16.50;7.20;;;10.30;99.90;;;;;;5013031;28;20113;-85
2022/05/05 06:33:49;;;;;;;15.82;6.80;;;10.50;99.90;;;;;;5012371;28;20050;-85
2022/05/05 06:36:16;;;;;;;14.75;7.30;;;10.70;99.90;;;;;;5010725;28;20056;-84
2022/05/05 06:38:41;;;;;;;15.23;6.85;;;10.90;99.90;;;;;;5009184;28;20046;-85
2022/05/05 06:41:08;;;;;;;16.35;7.38;;;11.00;99.90;;;;;;5008801;28;20057;-84
2022/05/05 06:43:34;;;;;;;20.92;6.78;;;11.20;99.90;;;;;;5006611;28;20043;-85
2022/05/05 06:45:59;;;;;;;13.07;6.50;;;11.40;99.90;;;;;;5007621;28;20121;-85
2022/05/05 06:48:26;;;;;;;15.10;6.20;;;11.50;99.90;;;;;;5008386;28;20097;-84
2022/05/05 06:50:51;;;;;;;17.92;6.03;;;11.70;99.90;;;;;;5006562;28;20085;-84
2022/05/05 06:53:17;;;;;;;12.38;5.57;;;11.90;99.90;;;;;;5002072;28;20046;-85
2022/05/05 06:55:42;;;;;;;14.80;5.43;;;12.00;99.90;;;;;;5003414;28;20676;-85
2022/05/05 06:58:08;;;;;;;15.43;6.05;;;12.10;99.90;;;;;;4999979;28;20096;-84
2022/05/05 07:03:18;;;;;;;11.32;5.85;;;12.20;99.90;;;;;;5000339;28;20051;-85
2022/05/05 07:05:45;;;;;;;12.65;5.85;;;12.40;99.90;;;;;;4999604;28;20085;-84
2022/05/05 07:08:11;;;;;;;15.23;6.78;;;12.70;99.90;;;;;;5002882;28;20046;-85
2022/05/05 07:10:55;;;;;;;14.48;6.07;;;12.60;99.90;;;;;;5002920;28;20100;-85
2022/05/05 07:13:22;;;;;;;14.63;5.32;;;12.80;99.90;;;;;;4999861;28;20189;-85
2022/05/05 07:15:49;;;;;;;14.45;5.78;;;12.90;99.90;;;;;;4997338;28;20129;-85
2022/05/05 07:18:15;;;;;;;18.52;5.25;;;14.00;99.90;;;;;;5000174;28;20046;-85
2022/05/05 07:20:40;;;;;;;13.80;6.07;;;13.20;99.20;;;;;;4997191;28;20049;-85
2022/05/05 07:23:10;;;;;;;15.23;5.57;;;13.30;98.50;;;;;;4997855;28;20073;-85
2022/05/05 07:25:35;;;;;;;19.50;6.10;;;13.40;97.20;;;;;;4996097;28;20129;-85
2022/05/05 07:28:01;;;;;;;12.85;5.05;;;13.50;96.80;;;;;;4997996;28;20074;-85
2022/05/05 07:30:27;;;;;;;11.52;4.93;;;13.70;96.80;;;;;;4996993;28;20050;-85
2022/05/05 07:32:52;;;;;;;10.70;4.45;;;13.90;96.30;;;;;;4997326;28;20054;-84
2022/05/05 07:35:18;;;;;;;11.75;5.22;;;14.10;93.40;;;;;;4996707;28;20050;-85
2022/05/05 07:37:44;;;;;;;15.55;5.68;;;14.30;92.20;;;;;;4999122;28;20178;-85
2022/05/05 07:40:10;;;;;;;10.75;4.20;;;14.10;91.80;;;;;;5000793;28;20053;-85
2022/05/05 07:42:37;;;;;;;11.05;3.80;;;14.30;90.90;;;;;;4998815;28;20046;-85
2022/05/05 07:45:04;;;;;;;9.82;4.97;;;14.40;91.30;;;;;;4998454;28;20057;-85
2022/05/05 07:47:29;;;;;;;16.92;4.65;;;14.50;90.50;;;;;;4997958;28;20054;-85
2022/05/05 07:49:55;;;;;;;13.93;3.65;;;14.60;90.40;;;;;;4995806;28;20510;-85
2022/05/05 07:52:20;;;;;;;12.43;4.15;;;14.80;88.10;;;;;;4997767;28;20118;-85
2022/05/05 07:54:46;;;;;;;13.45;5.00;;;15.00;86.70;;;;;;4997128;28;20105;-85
2022/05/05 07:57:13;;;;;;;12.75;4.68;;;16.10;83.90;;;;;;4996767;28;20136;-85
2022/05/05 07:59:40;;;;;;;10.25;3.88;;;15.40;84.00;;;;;;4998429;28;20054;-85
2022/05/05 08:02:13;;;;;;;16.58;4.85;;;15.60;80.60;;;;;;4996975;28;20053;-85
2022/05/05 08:04:38;;;;;;;15.68;4.43;;;15.70;76.50;;;;;;4998846;28;20046;-85
2022/05/05 08:07:04;;;;;;;10.43;4.00;;;15.90;72.80;;;;;;4998225;28;20044;-85
2022/05/05 08:09:30;;;;;;;12.48;3.90;;;16.10;67.20;;;;;;4998088;28;20507;-86
2022/05/05 08:11:55;;;;;;;12.63;3.95;;;16.20;62.70;;;;;;4997208;28;20073;-85
2022/05/05 08:14:21;;;;;;;15.93;4.00;;;16.30;59.70;;;;;;4997769;28;20046;-85
2022/05/05 08:16:46;;;;;;;10.70;3.85;;;16.50;55.70;;;;;;4997529;28;21070;-86
2022/05/05 08:19:12;;;;;;;9.48;4.22;;;16.50;49.20;;;;;;4996950;28;20046;-85
2022/05/05 08:21:37;;;;;;;6.32;2.92;;;16.70;42.10;;;;;;4995409;28;20490;-85
2022/05/05 08:29:32;;;;;;;7.38;3.08;;;17.00;31.60;;;;;;4995544;28;20061;-85
2022/05/05 08:31:58;;;;;;;9.35;3.60;;;17.10;31.20;;;;;;4995295;28;20050;-85
2022/05/05 08:34:24;;;;;;;9.95;3.50;;;17.40;27.50;;;;;;4994866;28;20097;-86
2022/05/05 08:36:51;;;;;;;7.93;3.60;;;17.40;27.10;;;;;;4995787;28;20445;-85
2022/05/05 08:39:17;;;;;;;11.02;3.83;;;17.80;27.30;;;;;;4997362;28;20782;-86
2022/05/05 08:41:43;;;;;;;8.05;3.72;;;18.20;27.00;;;;;;4997540;28;20062;-86
2022/05/05 08:44:09;;;;;;;9.40;3.45;;;18.70;24.60;;;;;;4997862;28;20042;-86
2022/05/05 08:46:35;;;;;;;7.82;3.53;;;19.30;18.20;;;;;;4998423;28;20122;-86
2022/05/05 08:49:06;;;;;;;6.95;3.65;;;18.90;18.70;;;;;;5011416;28;20045;-85
2022/05/05 08:51:42;;;;;;;8.30;3.97;;;19.00;15.10;;;;;;4995278;28;20077;-86
2022/05/05 08:54:12;;;;;;;10.90;3.47;;;19.40;14.20;;;;;;4994908;28;20117;-86
2022/05/05 08:56:38;;;;;;;8.73;3.90;;;19.40;11.10;;;;;;4994702;28;20070;-86
2022/05/05 08:59:04;;;;;;;11.00;3.40;;;20.30;12.60;;;;;;4994001;28;20047;-86
2022/05/05 09:01:39;;;;;;;9.50;3.42;;;20.10;8.90;;;;;;5010703;28;20495;-86
2022/05/05 09:04:08;;;;;;;6.72;2.75;;;20.00;3.90;;;;;;4995606;28;20053;-86
2022/05/05 09:06:41;;;;;;;8.52;3.03;;;20.00;5.90;;;;;;4994083;28;20057;-86
2022/05/05 09:09:26;;;;;;;8.40;4.20;;;20.10;3.30;;;;;;4994279;28;20054;-86
2022/05/05 09:12:11;;;;;;;8.63;3.58;;;19.90;4.10;;;;;;4995643;28;20046;-86
2022/05/05 09:14:38;;;;;;;10.43;3.45;;;20.10;2.10;;;;;;4994561;28;20050;-86
2022/05/05 09:17:07;;;;;;;8.48;3.58;;;20.00;5.30;;;;;;4996768;28;20038;-86
2022/05/05 09:19:50;;;;;;;10.98;3.58;;;20.60;4.30;;;;;;4993647;28;20475;-86
2022/05/05 09:22:26;;;;;;;8.90;3.45;;;20.90;1.40;;;;;;4993924;28;20050;-86
2022/05/05 09:24:56;;;;;;;7.22;3.72;;;20.70;1.00;;;;;;4994223;28;20046;-86
2022/05/05 09:27:27;;;;;;;9.63;3.50;;;20.80;1.80;;;;;;4993204;28;20116;-86
2022/05/05 09:30:01;;;;;;;11.60;4.35;;;21.20;1.00;;;;;;4993648;28;20058;-86
2022/05/05 09:32:33;;;;;;;8.40;3.65;;;20.90;1.00;;;;;;4995353;28;20057;-86
2022/05/05 09:35:02;;;;;;;8.75;3.83;;;20.80;1.00;;;;;;4995760;28;20089;-86
2022/05/05 09:37:29;;;;;;;11.00;4.07;;;20.50;2.70;;;;;;4995949;28;20053;-86
2022/05/05 09:39:55;;;;;;;8.05;4.32;;;21.00;2.20;;;;;;4995159;28;20146;-87
2022/05/05 09:42:41;;;;;;;17.10;4.93;;;21.20;1.00;;;;;;4996751;28;20046;-86
2022/05/05 09:45:23;;;;;;;7.82;4.38;;;21.00;1.00;;;;;;4996635;28;20129;-85
2022/05/05 09:48:02;;;;;;;9.20;4.38;;;21.10;2.10;;;;;;4996042;28;20039;-86
2022/05/05 09:50:37;;;;;;;9.95;5.00;;;20.90;1.20;;;;;;5002068;28;20563;-86
2022/05/05 09:59:04;;;;;;;13.68;4.93;;;20.50;1.60;;;;;;4999562;28;20082;-85
2022/05/05 10:01:31;;;;;;;8.63;4.53;;;21.30;1.00;;;;;;4999140;28;20058;-86
2022/05/05 10:04:03;;;;;;;10.38;4.55;;;21.50;1.00;;;;;;4997710;28;20062;-85
2022/05/05 10:06:35;;;;;;;8.23;4.45;;;21.30;1.00;;;;;;4996258;28;20057;-86
2022/05/05 10:09:06;;;;;;;8.35;4.32;;;22.10;1.00;;;;;;4999512;28;20053;-87
2022/05/05 10:11:32;;;;;;;11.98;6.15;;;22.70;1.00;;;;;;4999542;28;20050;-87
2022/05/05 10:14:00;;;;;;;8.45;4.70;;;23.00;1.00;;;;;;4999256;28;20117;-86
2022/05/05 10:16:27;;;;;;;11.02;5.28;;;23.40;1.00;;;;;;5001466;28;20112;-87
2022/05/05 10:18:52;;;;;;;8.90;4.15;;;24.30;1.00;;;;;;5015729;28;20046;-87
2022/05/05 10:21:43;;;;;;;7.90;4.30;;;23.80;1.00;;;;;;4995713;28;20440;-82
2022/05/05 10:24:22;;;;;;;7.63;4.53;;;23.90;1.00;;;;;;4996622;28;20108;-86
2022/05/05 10:26:49;;;;;;;12.25;5.10;;;24.00;1.00;;;;;;4997724;28;20663;-86
2022/05/05 10:29:38;;;;;;;8.77;4.63;;;23.10;1.00;;;;;;4998326;28;20054;-85
2022/05/05 10:32:21;;;;;;;9.80;5.88;;;23.90;1.00;;;;;;4998027;28;20064;-86
2022/05/05 10:35:14;;;;;;;7.47;4.65;;;24.40;1.00;;;;;;4995944;28;20042;-85
2022/05/05 10:37:40;;;;;;;7.45;3.70;;;24.00;1.00;;;;;;4991480;28;20061;-85
2022/05/05 10:40:07;;;;;;;7.40;3.78;;;24.70;1.00;;;;;;4995490;28;20046;-85
2022/05/05 10:42:42;;;;;;;10.63;4.60;;;24.90;1.00;;;;;;5009501;28;20067;-85
2022/05/05 10:45:30;;;;;;;8.40;4.28;;;25.00;1.00;;;;;;4999258;28;20050;-83
2022/05/05 10:47:58;;;;;;;7.55;3.58;;;24.90;1.00;;;;;;4999370;28;20109;-82
2022/05/05 10:50:39;;;;;;;6.63;3.88;;;24.80;1.00;;;;;;4999607;28;20122;-83
2022/05/05 10:53:06;;;;;;;6.78;4.43;;;24.80;1.00;;;;;;4995204;28;20050;-83
2022/05/05 10:55:39;;;;;;;7.22;3.83;;;24.00;1.00;;;;;;4995877;28;20653;-83
2022/05/05 10:58:05;;;;;;;6.30;3.35;;;24.20;1.00;;;;;;5001595;28;20054;-82
2022/05/05 11:00:41;;;;;;;7.82;3.97;;;24.50;1.00;;;;;;5000337;28;20058;-86
2022/05/05 11:03:06;;;;;;;;;;;24.40;1.00;;;;;;4996293;28;20054;-86
2022/05/05 11:05:36;;;;;;;6.97;3.42;;;24.60;1.00;;;;;;4996118;28;19922;-86
2022/05/05 11:08:14;;;;;;;6.40;3.85;;;24.80;1.00;;;;;;4994215;28;20077;-86
2022/05/05 11:13:55;;;;;;;7.80;5.05;;;24.80;1.00;;;;;;4977783;28;20086;-86
2022/05/05 11:22:18;;;;;;;5.93;3.33;;;24.60;1.00;;;;;;4994788;28;20046;-86
2022/05/05 11:24:50;;;;;;;10.02;4.20;;;25.40;1.00;;;;;;4995987;28;20438;-86
2022/05/05 11:27:25;;;;;;;7.90;4.05;;;25.50;1.00;;;;;;4994670;28;20116;-86
2022/05/05 11:29:57;;;;;;;6.22;3.40;;;25.50;1.00;;;;;;4994340;28;20101;-85
2022/05/05 11:32:35;;;;;;;4.97;3.08;;;25.40;1.00;;;;;;4978714;28;20505;-86
2022/05/05 11:35:01;;;;;;;7.03;3.72;;;25.00;1.00;;;;;;4994278;28;20053;-85
2022/05/05 11:37:28;;;;;;;6.63;3.42;;;25.00;1.00;;;;;;4995437;28;20061;-85
2022/05/05 11:39:54;;;;;;;5.45;3.30;;;25.30;1.00;;;;;;4993767;28;20054;-85
2022/05/05 11:42:19;;;;;;;9.70;4.15;;;25.50;1.00;;;;;;4994168;28;20048;-86
2022/05/05 11:44:46;;;;;;;7.32;4.63;;;25.60;1.00;;;;;;4994083;28;20043;-86
2022/05/05 11:47:16;;;;;;;7.57;4.72;;;25.10;1.00;;;;;;5010395;28;20125;-86
2022/05/05 11:49:44;;;;;;;7.13;4.20;;;24.90;1.00;;;;;;4994429;28;20402;-86
2022/05/05 11:52:14;;;;;;;10.05;5.68;;;24.60;1.00;;;;;;4977793;28;20042;-86
2022/05/05 11:54:40;;;;;;;10.07;5.10;;;24.60;1.00;;;;;;4994061;28;20050;-86
2022/05/05 11:57:05;;;;;;;10.18;4.65;;;25.20;1.00;;;;;;4994084;28;20046;-86
2022/05/05 12:02:19;;;;;;;8.93;4.60;;;25.30;1.00;;;;;;4993792;28;20049;-86
2022/05/05 12:04:55;;;;;;;8.60;5.05;;;25.30;1.00;;;;;;4995032;28;20050;-86
2022/05/05 12:07:23;;;;;;;7.32;5.00;;;25.60;1.00;;;;;;4993751;28;20046;-86
2022/05/05 12:09:58;;;;;;;10.38;5.32;;;26.40;1.00;;;;;;4993053;28;20125;-87
2022/05/05 12:12:29;;;;;;;9.45;5.20;;;27.00;1.00;;;;;;4992860;28;20045;-86
2022/05/05 12:14:58;;;;;;;12.02;5.63;;;26.90;1.00;;;;;;5008578;28;20583;-86
2022/05/05 12:17:26;;;;;;;9.20;4.95;;;27.30;1.00;;;;;;4991850;28;20504;-86
2022/05/05 12:19:55;;;;;;;11.40;6.07;;;26.40;1.00;;;;;;4991907;28;20049;-86
2022/05/05 12:22:28;;;;;;;16.75;5.10;;;26.10;1.00;;;;;;5008395;28;20049;-86
2022/05/05 12:24:54;;;;;;;7.50;5.22;;;26.60;1.00;;;;;;4992026;28;20564;-86
2022/05/05 12:27:25;;;;;;;14.00;5.97;;;27.70;1.00;;;;;;4993271;28;20129;-85
2022/05/05 12:29:51;;;;;;;9.10;5.47;;;27.60;1.00;;;;;;4992195;28;20129;-86
2022/05/05 12:32:18;;;;;;;10.10;6.20;;;27.10;1.00;;;;;;4993432;28;20066;-86
2022/05/05 12:34:45;;;;;;;12.18;6.43;;;25.80;1.00;;;;;;4994485;28;20050;-86
2022/05/05 12:37:12;;;;;;;11.18;6.05;;;24.10;1.00;;;;;;4994598;28;20045;-86
2022/05/05 12:40:01;;;;;;;9.80;5.82;;;24.20;1.00;;;;;;4994082;28;20097;-86
2022/05/05 12:42:45;;;;;;;9.35;5.78;;;24.40;1.00;;;;;;4993130;28;20407;-86
2022/05/05 12:45:15;;;;;;;12.73;7.20;;;25.10;1.00;;;;;;4994212;28;20691;-86
2022/05/05 12:47:42;;;;;;;8.07;5.05;;;26.40;1.00;;;;;;4992882;28;20053;-86
2022/05/05 12:50:30;;;;;;;10.07;5.45;;;26.70;1.00;;;;;;4994243;28;20525;-86
2022/05/05 13:01:53;;;;;;;13.63;5.70;;;27.30;1.00;;;;;;4992460;28;20090;-85
2022/05/05 13:04:19;;;;;;;10.75;5.47;;;28.00;1.00;;;;;;4992555;28;20062;-85
2022/05/05 13:06:48;;;;;;;10.70;5.45;;;27.40;1.00;;;;;;4992625;28;20046;-86
2022/05/05 13:09:14;;;;;;;7.70;5.20;;;27.80;1.00;;;;;;4992326;28;20508;-86
2022/05/05 13:11:44;;;;;;;7.95;4.80;;;28.10;1.00;;;;;;4992598;28;20065;-86
2022/05/05 13:14:13;;;;;;;12.93;5.80;;;26.60;1.00;;;;;;4976606;28;20042;-86
2022/05/05 13:16:39;;;;;;;11.88;6.50;;;25.60;1.00;;;;;;4992529;28;20046;-86
2022/05/05 13:19:07;;;;;;;11.95;5.63;;;24.20;1.00;;;;;;4993276;28;20042;-87
2022/05/05 13:21:33;;;;;;;9.60;4.88;;;24.40;1.00;;;;;;4992658;28;20043;-86
2022/05/05 13:23:59;;;;;;;7.55;4.80;;;24.70;1.00;;;;;;4993448;28;20054;-86
2022/05/05 13:26:25;;;;;;;8.93;5.15;;;24.50;1.00;;;;;;4996401;28;20415;-85
2022/05/05 13:28:51;;;;;;;10.00;4.97;;;24.80;1.00;;;;;;4996382;28;20129;-86
2022/05/05 13:31:16;;;;;;;8.55;4.82;;;25.70;1.00;;;;;;4996280;28;20414;-87
2022/05/05 13:33:42;;;;;;;8.95;5.15;;;26.20;1.00;;;;;;4996503;28;20054;-86
2022/05/05 13:36:08;;;;;;;9.70;5.30;;;26.10;1.00;;;;;;4996222;28;20057;-86
2022/05/05 13:38:34;;;;;;;10.93;5.28;;;26.20;1.00;;;;;;4997293;28;20038;-85